sensor_id;sensor_type;location;lat;lon;timestamp;pressure;altitude;pressure_sealevel;temperature;humidity
40570;BME280;26270;34.428;-119.710;2022-08-01T00:00:51;101098.56;;;31.45;34.48
40570;BME280;26270;34.428;-119.710;2022-08-01T00:03:19;101098.55;;;31.50;34.79
40570;BME280;26270;34.428;-119.710;2022-08-01T00:05:48;101101.19;;;31.22;34.99
40570;BME280;26270;34.428;-119.710;2022-08-01T00:08:16;101100.86;;;30.85;35.89
40570;BME280;26270;34.428;-119.710;2022-08-01T00:10:44;101106.54;;;30.73;36.80
40570;BME280;26270;34.428;-119.710;2022-08-01T00:13:12;101107.74;;;30.50;37.67
40570;BME280;26270;34.428;-119.710;2022-08-01T00:15:40;101108.63;;;30.38;38.21
40570;BME280;26270;34.428;-119.710;2022-08-01T00:18:08;101106.89;;;30.36;38.43
40570;BME280;26270;34.428;-119.710;2022-08-01T00:20:36;101105.47;;;30.34;39.17
40570;BME280;26270;34.428;-119.710;2022-08-01T00:23:04;101103.41;;;30.15;39.26
40570;BME280;26270;34.428;-119.710;2022-08-01T00:25:32;101102.27;;;30.08;39.65
40570;BME280;26270;34.428;-119.710;2022-08-01T00:28:00;101102.78;;;30.16;39.59
40570;BME280;26270;34.428;-119.710;2022-08-01T00:30:28;101099.69;;;30.27;39.41
40570;BME280;26270;34.428;-119.710;2022-08-01T00:32:56;101097.87;;;30.14;39.81
40570;BME280;26270;34.428;-119.710;2022-08-01T00:35:25;101101.42;;;29.88;40.44
40570;BME280;26270;34.428;-119.710;2022-08-01T00:37:54;101098.60;;;30.17;40.10
40570;BME280;26270;34.428;-119.710;2022-08-01T00:40:22;101102.68;;;29.97;39.97
40570;BME280;26270;34.428;-119.710;2022-08-01T00:42:57;101099.80;;;29.99;39.37
40570;BME280;26270;34.428;-119.710;2022-08-01T00:45:26;101099.46;;;29.90;39.64
40570;BME280;26270;34.428;-119.710;2022-08-01T00:47:54;101098.69;;;29.95;39.04
40570;BME280;26270;34.428;-119.710;2022-08-01T00:50:23;101101.24;;;29.86;34.46
40570;BME280;26270;34.428;-119.710;2022-08-01T00:52:52;101104.38;;;29.67;33.68
40570;BME280;26270;34.428;-119.710;2022-08-01T00:55:21;101107.34;;;29.82;33.89
40570;BME280;26270;34.428;-119.710;2022-08-01T00:57:50;101110.42;;;29.69;33.70
40570;BME280;26270;34.428;-119.710;2022-08-01T01:00:19;101110.67;;;29.62;33.62
40570;BME280;26270;34.428;-119.710;2022-08-01T01:02:47;101114.88;;;29.47;33.52
40570;BME280;26270;34.428;-119.710;2022-08-01T01:05:15;101122.29;;;29.18;39.82
40570;BME280;26270;34.428;-119.710;2022-08-01T01:07:50;101126.27;;;28.48;42.30
40570;BME280;26270;34.428;-119.710;2022-08-01T01:10:30;101127.39;;;28.31;43.48
40570;BME280;26270;34.428;-119.710;2022-08-01T01:13:06;101120.87;;;27.88;43.96
40570;BME280;26270;34.428;-119.710;2022-08-01T01:15:43;101115.89;;;27.95;44.52
40570;BME280;26270;34.428;-119.710;2022-08-01T01:18:20;101115.58;;;27.88;45.23
40570;BME280;26270;34.428;-119.710;2022-08-01T01:20:55;101114.50;;;27.67;45.46
40570;BME280;26270;34.428;-119.710;2022-08-01T01:23:39;101110.05;;;27.55;45.10
40570;BME280;26270;34.428;-119.710;2022-08-01T01:26:20;101108.83;;;27.65;45.39
40570;BME280;26270;34.428;-119.710;2022-08-01T01:29:02;101113.73;;;27.41;46.38
40570;BME280;26270;34.428;-119.710;2022-08-01T01:31:36;101112.45;;;27.42;46.68
40570;BME280;26270;34.428;-119.710;2022-08-01T01:34:10;101106.88;;;27.25;46.97
40570;BME280;26270;34.428;-119.710;2022-08-01T01:36:40;101104.66;;;27.17;47.44
40570;BME280;26270;34.428;-119.710;2022-08-01T01:39:10;101099.05;;;26.82;48.34
40570;BME280;26270;34.428;-119.710;2022-08-01T01:41:39;101104.51;;;26.53;48.92
40570;BME280;26270;34.428;-119.710;2022-08-01T01:44:10;101101.89;;;26.75;49.53
40570;BME280;26270;34.428;-119.710;2022-08-01T01:46:39;101099.96;;;26.16;50.62
40570;BME280;26270;34.428;-119.710;2022-08-01T01:49:10;101100.48;;;26.28;50.87
40570;BME280;26270;34.428;-119.710;2022-08-01T01:51:40;101108.77;;;26.14;51.08
40570;BME280;26270;34.428;-119.710;2022-08-01T01:54:10;101106.36;;;25.99;51.08
40570;BME280;26270;34.428;-119.710;2022-08-01T01:56:41;101106.26;;;25.55;51.59
40570;BME280;26270;34.428;-119.710;2022-08-01T01:59:10;101101.58;;;25.56;51.63
40570;BME280;26270;34.428;-119.710;2022-08-01T02:01:39;101100.29;;;25.31;52.00
40570;BME280;26270;34.428;-119.710;2022-08-01T02:04:08;101100.57;;;24.83;54.19
40570;BME280;26270;34.428;-119.710;2022-08-01T02:06:38;101106.10;;;25.03;54.46
40570;BME280;26270;34.428;-119.710;2022-08-01T02:09:08;101110.23;;;25.10;54.49
40570;BME280;26270;34.428;-119.710;2022-08-01T02:11:37;101109.90;;;25.05;54.67
40570;BME280;26270;34.428;-119.710;2022-08-01T02:14:07;101109.03;;;25.02;54.99
40570;BME280;26270;34.428;-119.710;2022-08-01T02:16:39;101107.57;;;24.88;55.13
40570;BME280;26270;34.428;-119.710;2022-08-01T02:19:09;101102.39;;;25.23;54.88
40570;BME280;26270;34.428;-119.710;2022-08-01T02:21:40;101104.55;;;25.04;55.11
40570;BME280;26270;34.428;-119.710;2022-08-01T02:24:16;101104.70;;;25.10;54.94
40570;BME280;26270;34.428;-119.710;2022-08-01T02:26:50;101105.00;;;25.06;55.06
40570;BME280;26270;34.428;-119.710;2022-08-01T02:29:27;101106.06;;;24.97;55.33
40570;BME280;26270;34.428;-119.710;2022-08-01T02:31:55;101107.44;;;24.83;55.76
40570;BME280;26270;34.428;-119.710;2022-08-01T02:34:25;101107.32;;;24.94;55.36
40570;BME280;26270;34.428;-119.710;2022-08-01T02:36:57;101105.51;;;24.82;55.59
40570;BME280;26270;34.428;-119.710;2022-08-01T02:39:27;101109.01;;;24.79;55.86
40570;BME280;26270;34.428;-119.710;2022-08-01T02:42:00;101120.98;;;24.80;56.16
40570;BME280;26270;34.428;-119.710;2022-08-01T02:44:35;101124.40;;;24.61;56.40
40570;BME280;26270;34.428;-119.710;2022-08-01T02:47:04;101129.13;;;25.06;55.35
40570;BME280;26270;34.428;-119.710;2022-08-01T02:49:37;101130.28;;;25.23;54.44
40570;BME280;26270;34.428;-119.710;2022-08-01T02:52:10;101135.50;;;25.33;54.49
40570;BME280;26270;34.428;-119.710;2022-08-01T02:54:41;101142.89;;;25.37;54.03
40570;BME280;26270;34.428;-119.710;2022-08-01T02:57:11;101143.65;;;25.39;53.88
40570;BME280;26270;34.428;-119.710;2022-08-01T02:59:42;101150.43;;;25.20;53.94
40570;BME280;26270;34.428;-119.710;2022-08-01T03:02:11;101148.85;;;25.04;54.30
40570;BME280;26270;34.428;-119.710;2022-08-01T03:04:42;101153.43;;;24.96;54.50
40570;BME280;26270;34.428;-119.710;2022-08-01T03:07:12;101150.57;;;24.96;54.58
40570;BME280;26270;34.428;-119.710;2022-08-01T03:09:43;101152.29;;;24.87;54.49
40570;BME280;26270;34.428;-119.710;2022-08-01T03:12:15;101155.00;;;25.16;54.20
40570;BME280;26270;34.428;-119.710;2022-08-01T03:14:45;101156.77;;;25.07;54.17
40570;BME280;26270;34.428;-119.710;2022-08-01T03:17:15;101152.03;;;25.00;54.41
40570;BME280;26270;34.428;-119.710;2022-08-01T03:19:45;101148.13;;;24.98;54.70
40570;BME280;26270;34.428;-119.710;2022-08-01T03:22:15;101147.20;;;24.95;54.50
40570;BME280;26270;34.428;-119.710;2022-08-01T03:24:46;101148.58;;;25.03;54.78
40570;BME280;26270;34.428;-119.710;2022-08-01T03:27:16;101152.93;;;24.87;54.67
40570;BME280;26270;34.428;-119.710;2022-08-01T03:29:47;101152.92;;;24.81;54.84
40570;BME280;26270;34.428;-119.710;2022-08-01T03:32:17;101153.59;;;24.93;54.82
40570;BME280;26270;34.428;-119.710;2022-08-01T03:34:46;101154.86;;;24.88;54.85
40570;BME280;26270;34.428;-119.710;2022-08-01T03:37:27;101158.53;;;24.73;54.89
40570;BME280;26270;34.428;-119.710;2022-08-01T03:40:00;101161.52;;;24.65;55.36
40570;BME280;26270;34.428;-119.710;2022-08-01T03:42:33;101165.13;;;24.64;55.37
40570;BME280;26270;34.428;-119.710;2022-08-01T03:45:06;101167.13;;;24.72;55.52
40570;BME280;26270;34.428;-119.710;2022-08-01T03:47:35;101171.87;;;24.68;55.71
40570;BME280;26270;34.428;-119.710;2022-08-01T03:50:06;101177.46;;;24.55;56.14
40570;BME280;26270;34.428;-119.710;2022-08-01T03:52:38;101181.36;;;24.54;56.34
40570;BME280;26270;34.428;-119.710;2022-08-01T03:55:08;101185.04;;;24.42;56.28
40570;BME280;26270;34.428;-119.710;2022-08-01T03:57:38;101185.36;;;24.27;56.63
40570;BME280;26270;34.428;-119.710;2022-08-01T04:03:19;101186.02;;;24.47;56.20
40570;BME280;26270;34.428;-119.710;2022-08-01T04:05:47;101182.34;;;24.50;56.07
40570;BME280;26270;34.428;-119.710;2022-08-01T04:08:15;101185.38;;;24.63;55.70
40570;BME280;26270;34.428;-119.710;2022-08-01T04:10:44;101186.16;;;24.56;55.79
40570;BME280;26270;34.428;-119.710;2022-08-01T04:13:12;101192.95;;;24.58;55.73
40570;BME280;26270;34.428;-119.710;2022-08-01T04:15:40;101201.57;;;24.39;56.01
40570;BME280;26270;34.428;-119.710;2022-08-01T04:18:09;101207.27;;;24.52;56.25
40570;BME280;26270;34.428;-119.710;2022-08-01T04:20:37;101211.19;;;24.50;56.01
40570;BME280;26270;34.428;-119.710;2022-08-01T04:23:06;101209.95;;;24.50;55.91
40570;BME280;26270;34.428;-119.710;2022-08-01T04:25:35;101211.56;;;24.38;56.63
40570;BME280;26270;34.428;-119.710;2022-08-01T04:28:06;101212.70;;;24.33;56.38
40570;BME280;26270;34.428;-119.710;2022-08-01T04:30:36;101216.15;;;24.35;56.50
40570;BME280;26270;34.428;-119.710;2022-08-01T04:33:08;101214.82;;;24.36;56.56
40570;BME280;26270;34.428;-119.710;2022-08-01T04:35:39;101221.36;;;24.39;56.56
40570;BME280;26270;34.428;-119.710;2022-08-01T04:38:09;101224.03;;;24.18;56.76
40570;BME280;26270;34.428;-119.710;2022-08-01T04:40:38;101227.13;;;24.18;56.94
40570;BME280;26270;34.428;-119.710;2022-08-01T04:43:08;101224.72;;;24.13;57.19
40570;BME280;26270;34.428;-119.710;2022-08-01T04:45:36;101224.72;;;24.44;56.48
40570;BME280;26270;34.428;-119.710;2022-08-01T04:48:05;101227.45;;;24.19;57.24
40570;BME280;26270;34.428;-119.710;2022-08-01T04:50:35;101228.04;;;24.30;56.88
40570;BME280;26270;34.428;-119.710;2022-08-01T04:53:03;101227.44;;;24.23;57.10
40570;BME280;26270;34.428;-119.710;2022-08-01T04:55:31;101227.53;;;24.35;56.88
40570;BME280;26270;34.428;-119.710;2022-08-01T04:57:59;101223.17;;;24.26;57.08
40570;BME280;26270;34.428;-119.710;2022-08-01T05:00:28;101226.24;;;24.48;56.89
40570;BME280;26270;34.428;-119.710;2022-08-01T05:02:56;101230.11;;;24.13;57.48
40570;BME280;26270;34.428;-119.710;2022-08-01T05:05:24;101234.89;;;24.40;57.15
40570;BME280;26270;34.428;-119.710;2022-08-01T05:07:52;101237.57;;;24.34;57.14
40570;BME280;26270;34.428;-119.710;2022-08-01T05:10:20;101239.96;;;24.23;57.24
40570;BME280;26270;34.428;-119.710;2022-08-01T05:12:48;101246.09;;;24.25;57.31
40570;BME280;26270;34.428;-119.710;2022-08-01T05:15:17;101254.43;;;24.32;57.19
40570;BME280;26270;34.428;-119.710;2022-08-01T05:17:45;101258.40;;;24.38;57.49
40570;BME280;26270;34.428;-119.710;2022-08-01T05:20:13;101260.18;;;24.15;57.80
40570;BME280;26270;34.428;-119.710;2022-08-01T05:22:41;101262.45;;;24.21;57.96
40570;BME280;26270;34.428;-119.710;2022-08-01T05:25:09;101259.03;;;24.11;57.84
40570;BME280;26270;34.428;-119.710;2022-08-01T05:27:38;101262.27;;;24.29;57.66
40570;BME280;26270;34.428;-119.710;2022-08-01T05:30:07;101268.14;;;24.10;57.73
40570;BME280;26270;34.428;-119.710;2022-08-01T05:32:36;101269.45;;;24.02;58.06
40570;BME280;26270;34.428;-119.710;2022-08-01T05:35:05;101271.96;;;24.10;58.12
40570;BME280;26270;34.428;-119.710;2022-08-01T05:37:33;101275.34;;;24.20;57.95
40570;BME280;26270;34.428;-119.710;2022-08-01T05:40:02;101276.42;;;24.14;58.02
40570;BME280;26270;34.428;-119.710;2022-08-01T05:42:30;101280.29;;;24.10;58.17
40570;BME280;26270;34.428;-119.710;2022-08-01T05:44:59;101277.68;;;24.05;58.72
40570;BME280;26270;34.428;-119.710;2022-08-01T05:47:27;101274.53;;;23.88;58.93
40570;BME280;26270;34.428;-119.710;2022-08-01T05:49:55;101278.23;;;23.83;58.77
40570;BME280;26270;34.428;-119.710;2022-08-01T05:52:23;101279.47;;;23.74;59.04
40570;BME280;26270;34.428;-119.710;2022-08-01T05:54:51;101283.90;;;24.03;58.94
40570;BME280;26270;34.428;-119.710;2022-08-01T05:57:20;101289.71;;;23.80;59.33
40570;BME280;26270;34.428;-119.710;2022-08-01T05:59:48;101292.60;;;23.83;59.20
40570;BME280;26270;34.428;-119.710;2022-08-01T06:02:16;101297.07;;;23.59;59.60
40570;BME280;26270;34.428;-119.710;2022-08-01T06:04:44;101291.65;;;23.78;59.35
40570;BME280;26270;34.428;-119.710;2022-08-01T06:07:12;101295.08;;;23.78;59.76
40570;BME280;26270;34.428;-119.710;2022-08-01T06:09:41;101297.51;;;23.73;59.66
40570;BME280;26270;34.428;-119.710;2022-08-01T06:12:09;101302.92;;;23.67;60.32
40570;BME280;26270;34.428;-119.710;2022-08-01T06:14:37;101304.92;;;23.61;59.95
40570;BME280;26270;34.428;-119.710;2022-08-01T06:17:05;101306.96;;;23.47;60.53
40570;BME280;26270;34.428;-119.710;2022-08-01T06:19:33;101308.73;;;23.16;61.66
40570;BME280;26270;34.428;-119.710;2022-08-01T06:22:01;101309.44;;;23.44;60.55
40570;BME280;26270;34.428;-119.710;2022-08-01T06:24:30;101311.10;;;23.40;60.69
40570;BME280;26270;34.428;-119.710;2022-08-01T06:26:58;101309.59;;;23.63;60.38
40570;BME280;26270;34.428;-119.710;2022-08-01T06:29:26;101313.58;;;23.37;60.46
40570;BME280;26270;34.428;-119.710;2022-08-01T06:31:55;101315.68;;;23.47;61.08
40570;BME280;26270;34.428;-119.710;2022-08-01T06:34:23;101310.98;;;23.47;60.79
40570;BME280;26270;34.428;-119.710;2022-08-01T06:36:51;101313.34;;;23.29;60.76
40570;BME280;26270;34.428;-119.710;2022-08-01T06:39:19;101315.79;;;23.36;61.34
40570;BME280;26270;34.428;-119.710;2022-08-01T06:41:47;101319.50;;;23.40;60.67
40570;BME280;26270;34.428;-119.710;2022-08-01T06:44:16;101317.95;;;23.26;60.76
40570;BME280;26270;34.428;-119.710;2022-08-01T06:46:44;101311.07;;;23.46;61.05
40570;BME280;26270;34.428;-119.710;2022-08-01T06:49:12;101312.86;;;23.28;60.69
40570;BME280;26270;34.428;-119.710;2022-08-01T06:51:40;101319.45;;;23.11;61.70
40570;BME280;26270;34.428;-119.710;2022-08-01T06:54:08;101320.36;;;23.34;60.98
40570;BME280;26270;34.428;-119.710;2022-08-01T06:56:37;101319.73;;;23.47;60.77
40570;BME280;26270;34.428;-119.710;2022-08-01T06:59:05;101314.15;;;23.20;61.30
40570;BME280;26270;34.428;-119.710;2022-08-01T07:01:33;101312.51;;;23.42;60.80
40570;BME280;26270;34.428;-119.710;2022-08-01T07:04:02;101310.66;;;23.52;60.73
40570;BME280;26270;34.428;-119.710;2022-08-01T07:06:30;101312.32;;;22.91;62.22
40570;BME280;26270;34.428;-119.710;2022-08-01T07:08:58;101313.54;;;22.94;62.30
40570;BME280;26270;34.428;-119.710;2022-08-01T07:11:26;101316.93;;;23.28;61.38
40570;BME280;26270;34.428;-119.710;2022-08-01T07:13:55;101321.46;;;22.99;61.62
40570;BME280;26270;34.428;-119.710;2022-08-01T07:16:22;101315.47;;;22.97;61.96
40570;BME280;26270;34.428;-119.710;2022-08-01T07:18:51;101310.24;;;23.04;61.85
40570;BME280;26270;34.428;-119.710;2022-08-01T07:21:18;101309.34;;;23.17;61.23
40570;BME280;26270;34.428;-119.710;2022-08-01T07:23:47;101317.17;;;22.86;62.20
40570;BME280;26270;34.428;-119.710;2022-08-01T07:26:15;101320.03;;;23.05;61.70
40570;BME280;26270;34.428;-119.710;2022-08-01T07:28:43;101318.93;;;22.92;62.14
40570;BME280;26270;34.428;-119.710;2022-08-01T07:31:11;101321.30;;;23.11;61.95
40570;BME280;26270;34.428;-119.710;2022-08-01T07:33:40;101316.75;;;22.86;62.20
40570;BME280;26270;34.428;-119.710;2022-08-01T07:36:08;101314.26;;;22.92;62.10
40570;BME280;26270;34.428;-119.710;2022-08-01T07:38:36;101309.57;;;22.97;62.01
40570;BME280;26270;34.428;-119.710;2022-08-01T07:41:05;101307.25;;;23.02;62.10
40570;BME280;26270;34.428;-119.710;2022-08-01T07:43:33;101306.39;;;22.97;62.30
40570;BME280;26270;34.428;-119.710;2022-08-01T07:46:01;101306.02;;;22.91;62.25
40570;BME280;26270;34.428;-119.710;2022-08-01T07:48:29;101303.49;;;22.95;62.17
40570;BME280;26270;34.428;-119.710;2022-08-01T07:50:57;101296.65;;;23.00;62.11
40570;BME280;26270;34.428;-119.710;2022-08-01T07:53:25;101290.14;;;22.89;62.03
40570;BME280;26270;34.428;-119.710;2022-08-01T07:55:53;101286.14;;;22.96;62.32
40570;BME280;26270;34.428;-119.710;2022-08-01T07:58:22;101274.64;;;23.01;61.92
40570;BME280;26270;34.428;-119.710;2022-08-01T08:00:50;101272.83;;;22.91;62.48
40570;BME280;26270;34.428;-119.710;2022-08-01T08:03:18;101260.69;;;22.99;61.94
40570;BME280;26270;34.428;-119.710;2022-08-01T08:05:47;101259.18;;;22.82;62.11
40570;BME280;26270;34.428;-119.710;2022-08-01T08:08:15;101258.64;;;22.93;62.14
40570;BME280;26270;34.428;-119.710;2022-08-01T08:10:44;101258.82;;;23.01;61.68
40570;BME280;26270;34.428;-119.710;2022-08-01T08:13:12;101253.75;;;23.09;62.02
40570;BME280;26270;34.428;-119.710;2022-08-01T08:15:40;101244.66;;;22.91;62.26
40570;BME280;26270;34.428;-119.710;2022-08-01T08:18:08;101243.20;;;22.67;62.62
40570;BME280;26270;34.428;-119.710;2022-08-01T08:20:36;101245.88;;;22.60;62.84
40570;BME280;26270;34.428;-119.710;2022-08-01T08:23:05;101244.81;;;22.72;62.29
40570;BME280;26270;34.428;-119.710;2022-08-01T08:25:34;101243.17;;;22.68;62.66
40570;BME280;26270;34.428;-119.710;2022-08-01T08:28:02;101245.14;;;22.64;62.97
40570;BME280;26270;34.428;-119.710;2022-08-01T08:30:31;101238.22;;;22.72;62.68
40570;BME280;26270;34.428;-119.710;2022-08-01T08:32:58;101236.71;;;22.71;62.89
40570;BME280;26270;34.428;-119.710;2022-08-01T08:35:27;101236.34;;;22.71;62.72
40570;BME280;26270;34.428;-119.710;2022-08-01T08:37:55;101241.48;;;22.69;62.77
40570;BME280;26270;34.428;-119.710;2022-08-01T08:40:29;101239.77;;;22.59;62.95
40570;BME280;26270;34.428;-119.710;2022-08-01T08:42:59;101232.05;;;22.65;62.72
40570;BME280;26270;34.428;-119.710;2022-08-01T08:45:28;101235.34;;;22.76;62.59
40570;BME280;26270;34.428;-119.710;2022-08-01T08:47:56;101237.89;;;22.53;63.25
40570;BME280;26270;34.428;-119.710;2022-08-01T08:50:25;101245.98;;;22.68;62.95
40570;BME280;26270;34.428;-119.710;2022-08-01T08:52:55;101250.69;;;22.49;63.82
40570;BME280;26270;34.428;-119.710;2022-08-01T08:55:23;101249.51;;;22.68;63.64
40570;BME280;26270;34.428;-119.710;2022-08-01T08:57:52;101249.60;;;22.55;63.76
40570;BME280;26270;34.428;-119.710;2022-08-01T09:00:22;101255.95;;;22.42;64.42
40570;BME280;26270;34.428;-119.710;2022-08-01T09:02:49;101263.30;;;22.50;64.43
40570;BME280;26270;34.428;-119.710;2022-08-01T09:05:18;101274.18;;;22.42;63.84
40570;BME280;26270;34.428;-119.710;2022-08-01T09:07:46;101280.84;;;22.63;64.09
40570;BME280;26270;34.428;-119.710;2022-08-01T09:10:14;101282.92;;;22.57;64.45
40570;BME280;26270;34.428;-119.710;2022-08-01T09:13:03;101287.15;;;22.28;64.84
40570;BME280;26270;34.428;-119.710;2022-08-01T09:15:42;101290.08;;;22.40;64.83
40570;BME280;26270;34.428;-119.710;2022-08-01T09:18:27;101292.46;;;22.46;64.98
40570;BME280;26270;34.428;-119.710;2022-08-01T09:21:19;101294.73;;;22.58;64.38
40570;BME280;26270;34.428;-119.710;2022-08-01T09:23:48;101300.17;;;22.39;65.17
40570;BME280;26270;34.428;-119.710;2022-08-01T09:26:20;101302.85;;;22.41;65.16
40570;BME280;26270;34.428;-119.710;2022-08-01T09:28:48;101309.75;;;22.52;64.82
40570;BME280;26270;34.428;-119.710;2022-08-01T09:31:18;101308.77;;;22.36;65.67
40570;BME280;26270;34.428;-119.710;2022-08-01T09:33:50;101314.47;;;22.22;66.39
40570;BME280;26270;34.428;-119.710;2022-08-01T09:36:19;101315.40;;;22.52;65.68
40570;BME280;26270;34.428;-119.710;2022-08-01T09:38:48;101316.96;;;21.72;67.71
40570;BME280;26270;34.428;-119.710;2022-08-01T09:41:17;101315.99;;;22.31;65.88
40570;BME280;26270;34.428;-119.710;2022-08-01T09:43:49;101319.13;;;21.72;67.80
40570;BME280;26270;34.428;-119.710;2022-08-01T09:46:17;101322.05;;;21.98;67.34
40570;BME280;26270;34.428;-119.710;2022-08-01T09:49:03;101322.42;;;22.20;66.43
40570;BME280;26270;34.428;-119.710;2022-08-01T09:51:33;101314.49;;;22.30;65.67
40570;BME280;26270;34.428;-119.710;2022-08-01T09:54:02;101309.75;;;22.36;65.48
40570;BME280;26270;34.428;-119.710;2022-08-01T09:56:37;101303.79;;;22.44;65.69
40570;BME280;26270;34.428;-119.710;2022-08-01T09:59:06;101303.43;;;22.38;65.75
40570;BME280;26270;34.428;-119.710;2022-08-01T10:01:50;101302.39;;;22.35;65.49
40570;BME280;26270;34.428;-119.710;2022-08-01T10:04:19;101303.04;;;22.39;65.52
40570;BME280;26270;34.428;-119.710;2022-08-01T10:06:50;101304.18;;;22.42;65.31
40570;BME280;26270;34.428;-119.710;2022-08-01T10:09:27;101302.19;;;22.41;65.33
40570;BME280;26270;34.428;-119.710;2022-08-01T10:11:56;101294.08;;;22.50;65.18
40570;BME280;26270;34.428;-119.710;2022-08-01T10:14:26;101293.00;;;22.32;65.10
40570;BME280;26270;34.428;-119.710;2022-08-01T10:16:57;101287.29;;;22.52;64.78
40570;BME280;26270;34.428;-119.710;2022-08-01T10:19:27;101285.67;;;22.21;66.32
40570;BME280;26270;34.428;-119.710;2022-08-01T10:21:56;101282.62;;;22.38;65.45
40570;BME280;26270;34.428;-119.710;2022-08-01T10:24:26;101281.14;;;22.44;65.09
40570;BME280;26270;34.428;-119.710;2022-08-01T10:26:58;101281.76;;;22.35;64.91
40570;BME280;26270;34.428;-119.710;2022-08-01T10:29:27;101273.40;;;22.44;64.94
40570;BME280;26270;34.428;-119.710;2022-08-01T10:31:55;101268.27;;;21.36;69.11
40570;BME280;26270;34.428;-119.710;2022-08-01T10:34:23;101265.91;;;22.03;66.94
40570;BME280;26270;34.428;-119.710;2022-08-01T10:36:52;101267.83;;;22.01;67.02
40570;BME280;26270;34.428;-119.710;2022-08-01T10:39:21;101261.73;;;22.01;66.46
40570;BME280;26270;34.428;-119.710;2022-08-01T10:41:49;101254.91;;;22.34;65.74
40570;BME280;26270;34.428;-119.710;2022-08-01T10:44:17;101250.96;;;22.21;65.83
40570;BME280;26270;34.428;-119.710;2022-08-01T10:46:50;101247.10;;;21.85;67.36
40570;BME280;26270;34.428;-119.710;2022-08-01T10:49:23;101248.49;;;21.72;67.96
40570;BME280;26270;34.428;-119.710;2022-08-01T10:51:54;101245.78;;;21.92;67.52
40570;BME280;26270;34.428;-119.710;2022-08-01T10:54:25;101242.96;;;22.18;66.06
40570;BME280;26270;34.428;-119.710;2022-08-01T10:56:54;101238.20;;;22.20;66.06
40570;BME280;26270;34.428;-119.710;2022-08-01T10:59:23;101236.37;;;21.85;67.79
40570;BME280;26270;34.428;-119.710;2022-08-01T11:02:01;101235.97;;;22.03;66.81
40570;BME280;26270;34.428;-119.710;2022-08-01T11:04:41;101240.95;;;21.86;66.53
40570;BME280;26270;34.428;-119.710;2022-08-01T11:07:16;101237.26;;;21.91;67.12
40570;BME280;26270;34.428;-119.710;2022-08-01T11:09:45;101236.16;;;21.98;66.37
40570;BME280;26270;34.428;-119.710;2022-08-01T11:12:15;101235.64;;;22.05;66.17
40570;BME280;26270;34.428;-119.710;2022-08-01T11:15:49;101234.67;;;21.93;66.20
40570;BME280;26270;34.428;-119.710;2022-08-01T11:18:33;101233.58;;;21.81;66.74
40570;BME280;26270;34.428;-119.710;2022-08-01T11:21:02;101231.32;;;21.83;66.42
40570;BME280;26270;34.428;-119.710;2022-08-01T11:23:30;101237.27;;;21.76;66.64
40570;BME280;26270;34.428;-119.710;2022-08-01T11:26:12;101237.06;;;21.91;66.16
40570;BME280;26270;34.428;-119.710;2022-08-01T11:28:42;101238.94;;;22.09;65.74
40570;BME280;26270;34.428;-119.710;2022-08-01T11:31:29;101239.27;;;21.78;66.84
40570;BME280;26270;34.428;-119.710;2022-08-01T11:33:58;101239.66;;;22.02;66.26
40570;BME280;26270;34.428;-119.710;2022-08-01T11:36:28;101238.22;;;21.83;66.52
40570;BME280;26270;34.428;-119.710;2022-08-01T11:39:15;101240.66;;;22.00;66.11
40570;BME280;26270;34.428;-119.710;2022-08-01T11:41:45;101239.99;;;22.13;66.18
40570;BME280;26270;34.428;-119.710;2022-08-01T11:44:15;101235.72;;;21.96;66.79
40570;BME280;26270;34.428;-119.710;2022-08-01T11:47:01;101234.40;;;22.00;66.38
40570;BME280;26270;34.428;-119.710;2022-08-01T11:49:43;101230.91;;;22.05;66.25
40570;BME280;26270;34.428;-119.710;2022-08-01T11:52:14;101233.83;;;22.14;66.25
40570;BME280;26270;34.428;-119.710;2022-08-01T11:54:44;101235.87;;;22.06;65.84
40570;BME280;26270;34.428;-119.710;2022-08-01T11:57:17;101239.13;;;22.00;66.16
40570;BME280;26270;34.428;-119.710;2022-08-01T11:59:47;101242.70;;;21.85;66.90
40570;BME280;26270;34.428;-119.710;2022-08-01T12:02:18;101248.59;;;22.04;66.97
40570;BME280;26270;34.428;-119.710;2022-08-01T12:04:50;101258.43;;;22.25;66.30
40570;BME280;26270;34.428;-119.710;2022-08-01T12:07:20;101261.60;;;22.09;65.87
40570;BME280;26270;34.428;-119.710;2022-08-01T12:09:51;101258.38;;;22.09;66.55
40570;BME280;26270;34.428;-119.710;2022-08-01T12:12:24;101258.30;;;22.27;66.37
40570;BME280;26270;34.428;-119.710;2022-08-01T12:14:55;101258.53;;;22.04;66.68
40570;BME280;26270;34.428;-119.710;2022-08-01T12:17:32;101266.05;;;22.25;66.42
40570;BME280;26270;34.428;-119.710;2022-08-01T12:20:02;101262.24;;;22.00;66.74
40570;BME280;26270;34.428;-119.710;2022-08-01T12:22:31;101262.21;;;22.25;66.08
40570;BME280;26270;34.428;-119.710;2022-08-01T12:25:06;101265.89;;;22.18;66.26
40570;BME280;26270;34.428;-119.710;2022-08-01T12:27:35;101264.08;;;22.12;65.90
40570;BME280;26270;34.428;-119.710;2022-08-01T12:30:07;101261.76;;;22.05;66.54
40570;BME280;26270;34.428;-119.710;2022-08-01T12:32:37;101262.69;;;22.15;66.36
40570;BME280;26270;34.428;-119.710;2022-08-01T12:35:07;101258.92;;;21.88;67.54
40570;BME280;26270;34.428;-119.710;2022-08-01T12:37:36;101258.84;;;21.90;67.12
40570;BME280;26270;34.428;-119.710;2022-08-01T12:40:13;101262.75;;;21.80;66.97